Time;durP1;ratioP1;P1;durP2;ratioP2;P2;SDS_P1;SDS_P2;PMS_P1;PMS_P2;Temp;Humidity;BMP_temperature;BMP_pressure;BME280_temperature;BME280_humidity;BME280_pressure;Samples;Min_cycle;Max_cycle;Signal;HPM_P1;HPM_P2
2022/03/19 00:00:49;;;;;;;48.50;38.23;;;3.90;99.90;;;;;;4958818;29;20255;-77
2022/03/19 00:03:18;;;;;;;50.13;39.10;;;3.90;99.90;;;;;;4958179;28;20218;-75
2022/03/19 00:05:47;;;;;;;52.67;40.80;;;3.90;99.90;;;;;;4957453;28;20263;-76
2022/03/19 00:08:16;;;;;;;51.73;41.60;;;3.90;99.90;;;;;;4961891;29;20207;-75
2022/03/19 00:10:46;;;;;;;52.57;41.40;;;3.80;99.90;;;;;;4959151;28;20208;-75
2022/03/19 00:13:14;;;;;;;52.23;43.33;;;3.90;99.90;;;;;;4958736;29;20206;-76
2022/03/19 00:15:43;;;;;;;56.17;44.10;;;3.90;99.90;;;;;;4957816;28;20663;-76
2022/03/19 00:18:11;;;;;;;55.90;43.67;;;3.80;99.90;;;;;;4956268;28;20493;-78
2022/03/19 00:20:39;;;;;;;58.30;44.67;;;3.90;99.90;;;;;;4956508;28;20666;-76
2022/03/19 00:23:07;;;;;;;60.20;47.17;;;3.90;99.90;;;;;;4956480;28;20307;-78
2022/03/19 00:25:36;;;;;;;60.30;47.67;;;3.90;99.90;;;;;;4966814;28;20215;-76
2022/03/19 00:28:07;;;;;;;65.60;50.13;;;3.90;99.90;;;;;;4961441;28;20215;-76
2022/03/19 00:30:35;;;;;;;62.90;48.87;;;3.90;99.90;;;;;;4963301;28;20315;-74
2022/03/19 00:33:07;;;;;;;68.83;50.10;;;4.00;99.90;;;;;;4968184;29;20239;-78
2022/03/19 00:35:37;;;;;;;64.63;50.00;;;4.00;99.90;;;;;;4960321;28;20299;-76
2022/03/19 00:38:07;;;;;;;65.80;50.13;;;3.90;99.90;;;;;;4959852;28;20228;-76
2022/03/19 00:40:35;;;;;;;73.23;51.07;;;4.00;99.90;;;;;;4959773;29;20218;-78
2022/03/19 00:43:03;;;;;;;68.43;51.40;;;4.00;99.90;;;;;;4959012;28;20389;-77
2022/03/19 00:45:33;;;;;;;71.90;52.10;;;4.00;99.90;;;;;;4959184;28;20212;-77
2022/03/19 00:48:01;;;;;;;66.63;52.23;;;3.90;99.90;;;;;;4959493;28;20211;-78
2022/03/19 00:50:30;;;;;;;65.80;51.23;;;3.90;99.90;;;;;;4959891;29;20214;-77
2022/03/19 00:52:58;;;;;;;67.13;52.43;;;3.90;99.90;;;;;;4962050;29;20208;-76
2022/03/19 00:55:29;;;;;;;62.17;50.87;;;3.90;99.90;;;;;;4962694;28;20228;-79
2022/03/19 00:57:57;;;;;;;65.07;51.83;;;3.90;99.90;;;;;;4960678;28;20243;-76
2022/03/19 01:00:26;;;;;;;70.40;52.80;;;3.90;99.90;;;;;;4958709;28;20253;-76
2022/03/19 01:02:57;;;;;;;69.13;51.67;;;3.90;99.90;;;;;;4960230;28;20650;-74
2022/03/19 01:05:26;;;;;;;70.13;53.43;;;3.80;99.90;;;;;;4959990;29;20216;-75
2022/03/19 01:07:56;;;;;;;67.97;52.40;;;3.80;99.90;;;;;;4960612;29;20211;-75
2022/03/19 01:10:25;;;;;;;65.20;50.77;;;3.80;99.90;;;;;;4960681;29;20244;-77
2022/03/19 01:12:55;;;;;;;67.90;50.47;;;3.80;99.90;;;;;;4960185;28;20299;-76
2022/03/19 01:15:24;;;;;;;67.40;51.57;;;3.80;99.90;;;;;;4959886;28;20690;-75
2022/03/19 01:17:57;;;;;;;66.40;51.17;;;3.80;99.90;;;;;;4960047;28;20198;-76
2022/03/19 01:20:25;;;;;;;68.30;52.50;;;3.80;99.90;;;;;;4958939;28;20215;-76
2022/03/19 01:22:53;;;;;;;70.67;51.97;;;3.70;99.90;;;;;;4959617;29;20235;-76
2022/03/19 01:25:21;;;;;;;68.67;51.60;;;3.70;99.90;;;;;;4958037;28;20219;-76
2022/03/19 01:27:51;;;;;;;68.60;52.23;;;3.60;99.90;;;;;;4958024;29;20234;-75
2022/03/19 01:30:21;;;;;;;69.43;50.70;;;3.60;99.90;;;;;;4959086;28;20262;-76
2022/03/19 01:32:50;;;;;;;63.70;50.17;;;3.50;99.90;;;;;;4960584;29;20196;-75
2022/03/19 01:35:21;;;;;;;65.77;50.93;;;3.60;99.90;;;;;;4960885;28;20211;-76
2022/03/19 01:37:52;;;;;;;64.83;50.37;;;3.50;99.90;;;;;;4960252;29;20670;-76
2022/03/19 01:40:21;;;;;;;67.10;51.13;;;3.50;99.90;;;;;;4961141;28;20239;-77
2022/03/19 01:42:51;;;;;;;64.90;52.03;;;3.40;99.90;;;;;;4960198;29;20566;-78
2022/03/19 01:45:21;;;;;;;66.73;51.17;;;3.40;99.90;;;;;;4959836;28;20303;-76
2022/03/19 01:47:49;;;;;;;70.20;50.60;;;3.30;99.90;;;;;;4955183;29;20271;-75
2022/03/19 01:50:20;;;;;;;72.47;53.33;;;3.30;99.90;;;;;;4949563;29;20207;-79
2022/03/19 01:52:52;;;;;;;68.03;52.63;;;3.20;99.90;;;;;;4939646;29;20582;-76
2022/03/19 01:55:23;;;;;;;66.33;51.63;;;3.30;99.90;;;;;;4940519;29;20240;-74
2022/03/19 01:57:52;;;;;;;67.83;51.80;;;3.20;99.90;;;;;;4944166;29;20200;-78
2022/03/19 02:00:22;;;;;;;67.63;51.53;;;3.10;99.90;;;;;;4952821;29;20492;-78
2022/03/19 02:02:52;;;;;;;74.73;54.17;;;3.10;99.90;;;;;;4950465;29;20224;-77
2022/03/19 02:05:23;;;;;;;67.07;50.97;;;2.90;99.90;;;;;;4953605;29;20216;-79
2022/03/19 02:07:53;;;;;;;64.10;50.03;;;2.90;99.90;;;;;;4975457;29;20443;-80
2022/03/19 02:10:23;;;;;;;63.53;49.47;;;2.90;99.90;;;;;;4968020;28;20235;-76
2022/03/19 02:12:55;;;;;;;65.43;49.53;;;2.90;99.90;;;;;;4962985;28;20235;-79
2022/03/19 02:15:24;;;;;;;64.83;49.10;;;2.80;99.90;;;;;;4963412;29;20283;-75
2022/03/19 02:17:52;;;;;;;64.87;49.70;;;2.80;99.90;;;;;;4965190;29;20467;-75
2022/03/19 02:20:20;;;;;;;64.30;49.80;;;2.80;99.90;;;;;;4966689;28;20490;-79
2022/03/19 02:25:39;;;;;;;64.03;48.77;;;2.70;99.90;;;;;;4962406;29;20207;-76
2022/03/19 02:28:09;;;;;;;66.03;48.93;;;2.70;99.90;;;;;;4962451;29;20470;-76
2022/03/19 02:30:40;;;;;;;62.43;47.30;;;2.70;99.90;;;;;;4961772;28;20490;-76
2022/03/19 02:33:09;;;;;;;63.23;48.23;;;2.70;99.90;;;;;;4962805;29;20234;-75
2022/03/19 02:35:37;;;;;;;67.93;50.07;;;2.60;99.90;;;;;;4966185;28;20239;-76
2022/03/19 02:38:06;;;;;;;65.33;47.73;;;2.60;99.90;;;;;;4964748;28;20461;-77
2022/03/19 02:40:34;;;;;;;64.33;47.30;;;2.50;99.90;;;;;;4964046;29;20566;-75
2022/03/19 02:43:03;;;;;;;62.90;47.23;;;2.50;99.90;;;;;;4963802;28;20467;-77
2022/03/19 02:45:33;;;;;;;65.40;47.83;;;2.40;99.90;;;;;;4964258;29;20211;-76
2022/03/19 02:48:06;;;;;;;58.80;44.80;;;2.40;99.90;;;;;;4964902;29;20451;-77
2022/03/19 02:50:36;;;;;;;61.40;45.37;;;2.40;99.90;;;;;;4965041;28;20992;-78
2022/03/19 02:53:07;;;;;;;60.63;45.10;;;2.30;99.90;;;;;;4966082;29;20471;-77
2022/03/19 02:55:37;;;;;;;57.03;42.73;;;2.30;99.90;;;;;;4968873;28;20471;-77
2022/03/19 02:58:08;;;;;;;56.13;41.63;;;2.30;99.90;;;;;;4966121;28;20535;-76
2022/03/19 03:00:38;;;;;;;56.53;42.13;;;2.30;99.90;;;;;;4964097;29;20572;-78
2022/03/19 03:03:07;;;;;;;53.10;39.13;;;2.30;99.90;;;;;;4962821;29;20454;-79
2022/03/19 03:05:36;;;;;;;52.37;39.40;;;2.30;99.90;;;;;;4962927;28;20218;-80
2022/03/19 03:08:05;;;;;;;49.80;38.50;;;2.30;99.90;;;;;;4960145;29;20447;-76
2022/03/19 03:10:35;;;;;;;51.87;38.57;;;2.30;99.90;;;;;;4959743;28;20216;-79
2022/03/19 03:13:03;;;;;;;49.20;37.87;;;2.30;99.90;;;;;;4959829;29;20212;-77
2022/03/19 03:15:33;;;;;;;49.67;37.10;;;2.20;99.90;;;;;;4958736;28;21009;-76
2022/03/19 03:18:02;;;;;;;50.03;37.13;;;2.20;99.90;;;;;;4958503;29;20208;-79
2022/03/19 03:20:30;;;;;;;46.43;34.43;;;2.20;99.90;;;;;;4960761;29;20498;-78
2022/03/19 03:22:59;;;;;;;47.67;35.10;;;2.20;99.90;;;;;;4957869;28;20298;-76
2022/03/19 03:25:27;;;;;;;51.17;35.37;;;2.20;99.90;;;;;;4957923;28;20462;-82
2022/03/19 03:27:55;;;;;;;45.57;34.13;;;2.10;99.90;;;;;;4959722;28;20455;-79
2022/03/19 03:30:23;;;;;;;45.40;33.83;;;2.10;99.90;;;;;;4958089;28;20821;-79
2022/03/19 03:32:52;;;;;;;46.97;34.40;;;2.00;99.90;;;;;;4958349;28;20623;-75
2022/03/19 03:35:25;;;;;;;46.87;35.33;;;2.00;99.90;;;;;;4957987;28;20495;-78
2022/03/19 03:37:54;;;;;;;48.50;36.30;;;1.90;99.90;;;;;;4958096;29;20510;-76
2022/03/19 03:40:22;;;;;;;48.40;36.47;;;1.90;99.90;;;;;;4957732;28;20490;-77
2022/03/19 03:42:50;;;;;;;48.87;35.07;;;1.90;99.90;;;;;;4961509;28;20211;-78
2022/03/19 03:45:20;;;;;;;49.33;35.70;;;1.80;99.90;;;;;;4965923;28;20451;-77
2022/03/19 03:47:53;;;;;;;49.23;34.80;;;1.80;99.90;;;;;;4959053;28;20459;-77
2022/03/19 03:50:21;;;;;;;45.50;34.43;;;1.70;99.90;;;;;;4960892;29;20482;-80
2022/03/19 03:52:49;;;;;;;45.00;32.90;;;1.70;99.90;;;;;;4966430;29;20455;-76
2022/03/19 03:55:18;;;;;;;45.73;33.87;;;1.60;99.90;;;;;;4958604;28;20443;-76
2022/03/19 03:57:47;;;;;;;46.27;33.80;;;1.70;99.90;;;;;;4960250;29;20494;-77
2022/03/19 04:00:18;;;;;;;42.17;31.80;;;1.60;99.90;;;;;;4962722;28;20510;-80
2022/03/19 04:02:46;;;;;;;43.70;32.63;;;1.70;99.90;;;;;;4960104;29;20275;-80
2022/03/19 04:05:15;;;;;;;44.77;33.30;;;1.50;99.90;;;;;;4960448;29;20461;-78
2022/03/19 04:07:44;;;;;;;45.50;32.43;;;1.50;99.90;;;;;;4960416;29;20488;-79
2022/03/19 04:10:12;;;;;;;42.23;31.77;;;1.50;99.90;;;;;;4960359;28;20509;-78
2022/03/19 04:12:40;;;;;;;43.53;32.17;;;1.40;99.90;;;;;;4960022;28;20439;-79
2022/03/19 04:15:10;;;;;;;45.87;32.53;;;1.30;99.90;;;;;;4959755;28;20549;-78
2022/03/19 04:17:38;;;;;;;42.67;32.17;;;1.30;99.90;;;;;;4957960;28;20854;-79
2022/03/19 04:20:07;;;;;;;44.60;32.53;;;1.20;99.90;;;;;;4956518;29;20596;-78
2022/03/19 04:22:41;;;;;;;48.73;31.70;;;1.20;99.90;;;;;;4955948;28;20463;-77
2022/03/19 04:25:17;;;;;;;42.83;31.70;;;1.20;99.90;;;;;;4951577;28;20494;-77
2022/03/19 04:27:47;;;;;;;45.60;33.53;;;1.10;99.90;;;;;;4952708;29;20499;-75
2022/03/19 04:30:17;;;;;;;42.30;32.20;;;1.10;99.90;;;;;;4952838;29;20478;-76
2022/03/19 04:32:47;;;;;;;42.77;31.63;;;1.10;99.90;;;;;;4941250;29;20448;-76
2022/03/19 04:38:07;;;;;;;45.80;33.23;;;1.00;99.90;;;;;;4954397;29;20530;-75
2022/03/19 04:40:36;;;;;;;44.67;33.53;;;1.00;99.90;;;;;;4955638;29;20514;-75
2022/03/19 04:43:06;;;;;;;44.00;32.17;;;1.00;99.90;;;;;;4956175;29;20965;-75
2022/03/19 04:45:35;;;;;;;47.03;33.80;;;1.00;99.90;;;;;;4956236;28;20832;-75
2022/03/19 04:48:04;;;;;;;41.20;30.77;;;1.00;99.90;;;;;;4956173;29;20510;-77
2022/03/19 04:50:37;;;;;;;45.87;32.97;;;1.00;99.90;;;;;;4956331;28;20884;-76
2022/03/19 04:53:08;;;;;;;43.20;32.10;;;1.00;99.90;;;;;;4955867;28;20971;-75
2022/03/19 04:55:38;;;;;;;43.67;31.60;;;0.90;99.90;;;;;;4955862;28;20487;-75
2022/03/19 04:58:08;;;;;;;43.40;31.30;;;0.90;99.90;;;;;;4956100;28;20462;-76
2022/03/19 05:00:38;;;;;;;43.30;31.17;;;0.80;99.90;;;;;;4957020;28;20483;-75
2022/03/19 05:03:07;;;;;;;42.20;30.63;;;0.80;99.90;;;;;;4955192;29;20502;-76
2022/03/19 05:05:36;;;;;;;40.97;30.60;;;0.80;99.90;;;;;;4955422;28;20487;-75
2022/03/19 05:08:09;;;;;;;42.47;29.97;;;0.80;99.90;;;;;;4955692;28;20546;-77
2022/03/19 05:13:23;;;;;;;41.40;30.43;;;0.80;99.90;;;;;;4955562;29;20483;-77
2022/03/19 05:15:51;;;;;;;38.57;28.63;;;0.80;99.90;;;;;;4955507;29;20483;-76
2022/03/19 05:18:23;;;;;;;39.60;29.33;;;0.70;99.90;;;;;;4955927;28;20510;-76
2022/03/19 05:20:51;;;;;;;38.70;28.47;;;0.80;99.90;;;;;;4955320;29;20491;-77
2022/03/19 05:23:20;;;;;;;38.67;29.13;;;0.80;99.90;;;;;;4955980;28;20451;-74
2022/03/19 05:25:50;;;;;;;38.50;27.77;;;0.80;99.90;;;;;;4955385;28;20856;-75
2022/03/19 05:28:18;;;;;;;38.87;27.33;;;0.70;99.90;;;;;;4955131;29;20494;-75
2022/03/19 05:30:57;;;;;;;37.40;28.37;;;0.80;99.90;;;;;;4954733;28;20465;-76
2022/03/19 05:36:08;;;;;;;37.50;27.20;;;0.80;99.90;;;;;;4955246;28;20502;-75
2022/03/19 05:38:37;;;;;;;35.67;26.27;;;0.80;99.90;;;;;;4954883;28;20446;-76
2022/03/19 05:41:06;;;;;;;33.27;25.07;;;0.80;99.90;;;;;;4955115;29;20495;-75
2022/03/19 05:43:34;;;;;;;33.53;26.53;;;0.80;99.90;;;;;;4956278;28;20511;-75
2022/03/19 05:46:02;;;;;;;33.17;25.47;;;0.90;99.90;;;;;;4955664;29;20848;-76
2022/03/19 05:48:30;;;;;;;34.90;26.27;;;1.00;99.90;;;;;;4956069;28;20470;-76
2022/03/19 05:50:59;;;;;;;35.17;25.13;;;1.00;99.90;;;;;;4955750;28;20447;-74
2022/03/19 05:53:31;;;;;;;32.87;25.43;;;1.00;99.90;;;;;;4956116;29;20542;-76
2022/03/19 05:56:01;;;;;;;33.93;25.60;;;1.10;99.90;;;;;;4961434;29;20502;-79
2022/03/19 05:58:29;;;;;;;34.53;25.37;;;1.10;99.90;;;;;;4954967;29;20866;-79
2022/03/19 06:00:57;;;;;;;33.80;25.40;;;1.10;99.90;;;;;;4958146;28;20534;-79
2022/03/19 06:03:26;;;;;;;33.73;26.03;;;1.10;99.90;;;;;;4958831;28;20475;-76
2022/03/19 06:05:55;;;;;;;32.53;25.43;;;1.20;99.90;;;;;;4961327;28;20493;-76
2022/03/19 06:08:23;;;;;;;33.90;25.37;;;1.30;99.90;;;;;;4958816;28;20542;-81
2022/03/19 06:10:51;;;;;;;31.63;24.90;;;1.30;99.90;;;;;;4954757;28;20809;-81
2022/03/19 06:13:21;;;;;;;34.87;25.17;;;1.30;99.90;;;;;;4954368;28;20446;-79
2022/03/19 06:15:49;;;;;;;31.33;23.30;;;1.40;99.90;;;;;;4954260;29;20557;-81
2022/03/19 06:18:18;;;;;;;29.03;23.20;;;1.50;99.90;;;;;;4956005;28;20459;-79
2022/03/19 06:20:46;;;;;;;31.30;24.00;;;1.50;99.90;;;;;;4954482;28;20482;-81
2022/03/19 06:23:16;;;;;;;34.13;23.97;;;1.70;99.90;;;;;;4954691;28;20965;-81
2022/03/19 06:25:44;;;;;;;30.10;23.20;;;1.80;99.90;;;;;;4954513;28;20542;-79
2022/03/19 06:28:12;;;;;;;30.17;22.80;;;1.90;99.90;;;;;;4954742;29;20970;-78
2022/03/19 06:30:42;;;;;;;31.07;23.47;;;2.00;99.90;;;;;;4953699;28;20318;-79
2022/03/19 06:33:11;;;;;;;30.43;22.53;;;2.10;99.90;;;;;;4953654;28;20463;-81
2022/03/19 06:38:29;;;;;;;29.90;21.50;;;2.40;99.90;;;;;;4953150;29;20601;-78
2022/03/19 06:40:59;;;;;;;32.30;22.70;;;2.60;99.90;;;;;;4938142;28;20296;-81
2022/03/19 06:43:28;;;;;;;31.50;23.60;;;2.60;99.90;;;;;;4955594;29;20227;-76
2022/03/19 06:46:00;;;;;;;30.03;22.37;;;2.70;99.90;;;;;;4970067;28;20208;-75
2022/03/19 06:48:29;;;;;;;28.00;23.07;;;2.80;99.90;;;;;;4970689;28;20227;-75
2022/03/19 06:50:57;;;;;;;30.77;22.20;;;3.00;99.90;;;;;;4968351;28;20251;-76
2022/03/19 06:53:28;;;;;;;30.73;22.27;;;3.10;99.90;;;;;;4966948;28;20236;-77
2022/03/19 06:55:57;;;;;;;28.37;21.20;;;3.20;99.90;;;;;;4960657;28;20255;-75
2022/03/19 06:58:26;;;;;;;29.40;21.40;;;3.30;99.90;;;;;;4959014;28;20252;-77
2022/03/19 07:00:54;;;;;;;26.60;20.73;;;3.50;99.90;;;;;;4941685;29;20201;-77
2022/03/19 07:03:25;;;;;;;25.40;20.40;;;3.60;99.90;;;;;;4961084;28;20218;-76
2022/03/19 07:05:54;;;;;;;26.10;20.63;;;3.70;99.90;;;;;;4957758;28;20222;-78
2022/03/19 07:08:42;;;;;;;26.60;20.73;;;4.20;99.90;;;;;;4964494;29;20226;-75
2022/03/19 07:11:10;;;;;;;28.90;21.57;;;4.30;99.90;;;;;;4974095;28;20191;-77
2022/03/19 07:13:38;;;;;;;27.03;20.23;;;4.50;99.90;;;;;;4974140;29;20215;-77
2022/03/19 07:16:07;;;;;;;27.37;20.67;;;4.80;99.90;;;;;;4972244;28;20227;-77
2022/03/19 07:18:37;;;;;;;26.97;20.00;;;5.10;99.90;;;;;;4972861;28;20306;-77
2022/03/19 07:21:05;;;;;;;26.17;21.67;;;6.00;99.90;;;;;;4974807;28;20212;-74
2022/03/19 07:23:34;;;;;;;26.50;20.17;;;7.10;99.90;;;;;;4977737;28;20230;-76
2022/03/19 07:26:03;;;;;;;24.67;20.37;;;7.70;99.30;;;;;;4971804;28;20689;-78
2022/03/19 07:28:33;;;;;;;24.43;19.37;;;8.60;97.40;;;;;;4965737;28;20215;-76
2022/03/19 07:31:03;;;;;;;25.57;20.40;;;9.40;95.50;;;;;;4967304;28;20311;-75
2022/03/19 07:33:34;;;;;;;22.63;19.67;;;10.20;92.80;;;;;;4967764;29;20246;-77
2022/03/19 07:36:04;;;;;;;23.80;19.90;;;10.90;90.00;;;;;;4968411;29;20227;-76
2022/03/19 07:43:54;;;;;;;25.17;20.03;;;11.70;85.00;;;;;;4998415;28;20210;-77
2022/03/19 07:46:24;;;;;;;22.23;19.03;;;11.90;83.60;;;;;;5004582;28;20214;-78
2022/03/19 07:48:53;;;;;;;21.17;18.40;;;12.30;84.60;;;;;;5007615;28;20238;-76
2022/03/19 07:51:23;;;;;;;22.17;18.43;;;13.00;79.20;;;;;;5005944;28;20257;-77
2022/03/19 07:53:51;;;;;;;20.40;17.63;;;13.10;78.00;;;;;;4996927;28;20293;-76
2022/03/19 07:56:19;;;;;;;20.00;17.20;;;13.40;75.80;;;;;;4995960;28;20732;-76
2022/03/19 07:58:50;;;;;;;19.67;17.37;;;13.40;75.00;;;;;;4998780;28;20281;-74
2022/03/19 08:01:19;;;;;;;19.70;16.60;;;14.10;71.60;;;;;;4995353;28;20301;-77
2022/03/19 08:03:48;;;;;;;19.23;17.17;;;15.30;67.00;;;;;;4994266;28;20739;-75
2022/03/19 08:06:16;;;;;;;18.47;16.53;;;15.60;66.10;;;;;;4995153;28;20276;-76
2022/03/19 08:08:45;;;;;;;19.93;16.27;;;15.80;62.30;;;;;;4993996;28;20221;-76
2022/03/19 08:11:19;;;;;;;19.80;16.47;;;16.20;60.00;;;;;;4993991;28;20246;-75
2022/03/19 08:13:48;;;;;;;18.00;16.10;;;15.70;58.30;;;;;;4995440;28;20731;-77
2022/03/19 08:16:19;;;;;;;17.47;15.50;;;15.30;60.50;;;;;;4996664;28;20302;-75
2022/03/19 08:18:49;;;;;;;18.83;15.37;;;15.30;57.00;;;;;;4994213;28;20191;-75
2022/03/19 08:21:17;;;;;;;17.60;15.70;;;15.10;56.60;;;;;;4994631;28;20660;-78
2022/03/19 08:23:47;;;;;;;16.47;14.77;;;15.50;58.00;;;;;;4994850;28;20321;-74
2022/03/19 08:26:16;;;;;;;18.30;15.07;;;15.90;56.90;;;;;;4994640;28;20250;-76
2022/03/19 08:28:44;;;;;;;16.00;14.30;;;16.20;54.20;;;;;;4994037;28;20760;-76
2022/03/19 08:31:15;;;;;;;15.33;13.70;;;16.30;53.10;;;;;;4994052;28;20186;-76
2022/03/19 08:33:44;;;;;;;16.10;13.93;;;15.80;50.00;;;;;;4994568;28;20202;-74
2022/03/19 08:36:12;;;;;;;19.07;13.60;;;15.20;51.10;;;;;;4994361;28;20273;-77
2022/03/19 08:41:31;;;;;;;14.90;13.30;;;14.60;50.90;;;;;;4993676;28;20230;-75
2022/03/19 08:44:01;;;;;;;14.77;13.13;;;15.20;50.10;;;;;;4993614;28;20214;-76
2022/03/19 08:46:30;;;;;;;14.87;12.93;;;15.10;51.70;;;;;;4994295;28;20190;-77
2022/03/19 08:48:59;;;;;;;14.70;13.07;;;15.60;49.20;;;;;;4993781;28;20214;-74
2022/03/19 08:51:42;;;;;;;14.27;12.37;;;16.30;48.70;;;;;;4993608;28;20249;-74
2022/03/19 08:54:14;;;;;;;14.00;12.10;;;16.50;46.80;;;;;;4994588;28;20191;-75
2022/03/19 08:56:48;;;;;;;14.23;12.73;;;16.00;47.30;;;;;;4993663;28;20633;-75
2022/03/19 08:59:17;;;;;;;13.70;12.30;;;15.50;46.90;;;;;;4987326;28;20222;-74
2022/03/19 09:01:47;;;;;;;14.60;12.60;;;16.10;48.70;;;;;;4987338;28;20261;-76
2022/03/19 09:04:19;;;;;;;15.57;11.73;;;16.00;47.10;;;;;;4992813;28;20221;-78
2022/03/19 09:06:51;;;;;;;14.47;12.37;;;16.10;46.00;;;;;;4992436;28;20206;-77
2022/03/19 09:09:22;;;;;;;16.57;12.33;;;15.60;46.20;;;;;;4984645;28;20213;-75
2022/03/19 09:11:51;;;;;;;16.47;12.33;;;15.60;47.50;;;;;;4988872;28;20222;-74
2022/03/19 09:14:20;;;;;;;15.27;11.70;;;15.80;46.80;;;;;;4992437;28;20234;-73
2022/03/19 09:16:49;;;;;;;14.03;11.70;;;16.20;47.20;;;;;;4992767;28;20216;-74
2022/03/19 09:19:17;;;;;;;17.33;11.37;;;17.00;45.50;;;;;;4972585;28;20343;-75
2022/03/19 09:21:45;;;;;;;13.13;11.53;;;17.70;44.70;;;;;;4972493;28;20262;-75
2022/03/19 09:24:15;;;;;;;15.10;12.33;;;17.90;45.50;;;;;;4971731;28;20250;-75
2022/03/19 09:26:43;;;;;;;15.23;12.83;;;17.40;46.10;;;;;;4971893;28;20246;-74
2022/03/19 09:29:14;;;;;;;14.43;12.27;;;17.80;45.10;;;;;;4970908;28;20643;-76
2022/03/19 09:31:43;;;;;;;14.70;12.20;;;17.30;44.40;;;;;;4970976;28;20241;-75
2022/03/19 09:34:12;;;;;;;15.43;12.13;;;16.40;46.50;;;;;;4983037;28;20206;-78
2022/03/19 09:36:41;;;;;;;14.40;12.13;;;15.80;44.40;;;;;;4991103;28;20242;-75
2022/03/19 09:39:09;;;;;;;15.43;12.73;;;15.90;46.70;;;;;;4991430;28;20224;-75
2022/03/19 09:41:37;;;;;;;13.93;12.40;;;16.40;46.00;;;;;;4992629;28;20277;-74
2022/03/19 09:44:05;;;;;;;14.17;12.10;;;17.10;47.50;;;;;;4992667;28;20715;-75
2022/03/19 09:46:37;;;;;;;15.27;12.20;;;17.90;46.30;;;;;;4992698;28;20699;-75
2022/03/19 09:49:06;;;;;;;14.33;12.23;;;18.30;44.40;;;;;;4993125;28;20261;-77
2022/03/19 09:51:37;;;;;;;14.37;11.60;;;19.00;43.00;;;;;;4992725;28;20750;-74
2022/03/19 09:54:05;;;;;;;14.00;10.87;;;18.40;41.70;;;;;;4993545;28;20317;-75
2022/03/19 09:56:35;;;;;;;12.60;10.90;;;17.10;41.80;;;;;;4994136;28;20292;-75
2022/03/19 09:59:04;;;;;;;12.57;11.27;;;16.70;43.70;;;;;;4993141;28;20210;-74
2022/03/19 10:01:33;;;;;;;13.80;11.67;;;15.50;43.20;;;;;;4993720;28;20217;-73
2022/03/19 10:04:05;;;;;;;14.03;12.07;;;15.70;46.50;;;;;;4994472;28;20305;-74
2022/03/19 10:09:20;;;;;;;13.77;11.30;;;15.90;42.00;;;;;;4993779;28;20253;-74
2022/03/19 10:11:50;;;;;;;13.40;12.00;;;16.90;46.30;;;;;;4987776;28;20286;-75
2022/03/19 10:14:23;;;;;;;12.17;10.87;;;17.20;42.40;;;;;;4974745;28;20206;-74
2022/03/19 10:16:56;;;;;;;13.33;11.07;;;17.90;41.30;;;;;;4974472;28;20202;-75
2022/03/19 10:19:29;;;;;;;12.00;10.67;;;17.80;40.40;;;;;;4975951;28;20258;-75
2022/03/19 10:22:13;;;;;;;12.27;10.90;;;17.90;40.80;;;;;;4977779;28;20195;-74
2022/03/19 10:24:44;;;;;;;13.23;10.63;;;17.10;39.60;;;;;;4977063;28;20756;-76
2022/03/19 10:27:18;;;;;;;12.80;10.17;;;17.00;40.10;;;;;;4977358;28;20242;-74
2022/03/19 10:29:47;;;;;;;12.37;10.50;;;16.80;39.40;;;;;;4977023;28;20214;-75
2022/03/19 10:32:15;;;;;;;13.27;10.70;;;16.20;37.90;;;;;;4984757;28;20226;-75
2022/03/19 10:34:48;;;;;;;12.60;9.97;;;16.60;40.30;;;;;;4996387;28;20206;-75
2022/03/19 10:37:37;;;;;;;12.47;10.97;;;17.40;39.00;;;;;;4996680;28;20201;-74
2022/03/19 10:40:10;;;;;;;11.77;10.17;;;16.50;38.60;;;;;;4995973;28;20272;-73
2022/03/19 10:42:40;;;;;;;15.80;10.87;;;16.70;40.80;;;;;;4996254;28;20209;-74
2022/03/19 10:45:11;;;;;;;13.97;11.13;;;16.00;40.30;;;;;;4996538;28;20214;-74
2022/03/19 10:47:42;;;;;;;13.80;11.43;;;16.80;43.50;;;;;;4996386;28;20226;-75
2022/03/19 10:50:19;;;;;;;13.43;11.90;;;17.90;44.10;;;;;;4996399;28;20214;-75
2022/03/19 10:52:49;;;;;;;12.30;11.00;;;18.10;40.60;;;;;;4996794;28;20201;-75
2022/03/19 10:55:21;;;;;;;12.70;11.37;;;18.50;41.60;;;;;;4996524;28;20297;-75
2022/03/19 10:57:49;;;;;;;14.47;11.20;;;19.00;41.90;;;;;;4996876;28;20217;-75
2022/03/19 11:00:22;;;;;;;14.17;10.33;;;19.40;41.10;;;;;;4995837;28;20249;-76
2022/03/19 11:02:54;;;;;;;13.83;10.97;;;19.20;39.40;;;;;;4996101;28;20214;-75
2022/03/19 11:05:26;;;;;;;11.57;10.33;;;18.50;40.60;;;;;;4995792;28;20198;-78
2022/03/19 11:07:57;;;;;;;13.80;10.97;;;18.30;38.60;;;;;;4995866;28;20233;-74
2022/03/19 11:10:26;;;;;;;11.10;10.00;;;18.50;40.70;;;;;;5000907;28;20242;-76
2022/03/19 11:13:00;;;;;;;11.80;8.50;;;18.70;39.90;;;;;;4996056;28;20210;-75
2022/03/19 11:15:33;;;;;;;10.20;9.10;;;18.30;35.80;;;;;;4996215;28;20617;-75
2022/03/19 11:18:05;;;;;;;11.07;9.50;;;18.60;37.60;;;;;;4995723;28;20261;-74
2022/03/19 11:20:36;;;;;;;12.33;9.13;;;19.10;37.80;;;;;;4995562;28;20206;-77
2022/03/19 11:23:05;;;;;;;14.20;9.80;;;19.00;37.00;;;;;;4995612;28;20209;-75
2022/03/19 11:25:38;;;;;;;11.27;9.77;;;19.40;36.80;;;;;;4995511;28;20284;-74
2022/03/19 11:28:08;;;;;;;11.37;9.60;;;19.50;35.20;;;;;;4995418;28;20645;-76
2022/03/19 11:30:40;;;;;;;13.23;9.70;;;18.70;37.60;;;;;;4994984;28;20214;-76
2022/03/19 11:33:16;;;;;;;11.50;10.20;;;19.00;37.20;;;;;;4995362;28;20214;-76
2022/03/19 11:35:48;;;;;;;13.17;10.43;;;18.80;38.50;;;;;;4995350;28;20288;-77
2022/03/19 11:38:20;;;;;;;11.83;10.37;;;18.50;38.80;;;;;;4995354;28;20224;-76
2022/03/19 11:40:54;;;;;;;12.37;11.10;;;18.10;38.10;;;;;;4994794;28;20591;-81
2022/03/19 11:43:31;;;;;;;11.90;10.70;;;17.70;37.30;;;;;;4995400;28;20632;-78
2022/03/19 11:46:02;;;;;;;12.13;10.67;;;17.00;38.60;;;;;;4995162;28;20200;-78
2022/03/19 11:48:46;;;;;;;12.30;11.00;;;17.10;38.90;;;;;;4995111;28;20194;-76
2022/03/19 11:51:31;;;;;;;13.00;10.73;;;16.00;39.50;;;;;;4994883;28;20297;-74
2022/03/19 11:54:01;;;;;;;13.63;11.23;;;14.80;40.90;;;;;;4995360;28;20194;-78
2022/03/19 11:57:04;;;;;;;12.43;10.90;;;15.00;43.00;;;;;;4994993;28;20676;-75
2022/03/19 11:59:48;;;;;;;13.50;10.93;;;15.10;41.10;;;;;;4995013;28;20245;-78
2022/03/19 12:02:18;;;;;;;13.43;11.27;;;14.70;44.20;;;;;;4994545;28;20285;-74
2022/03/19 12:04:55;;;;;;;16.07;12.87;;;14.30;43.00;;;;;;4994379;28;20700;-79
2022/03/19 12:07:41;;;;;;;14.80;10.33;;;13.50;43.30;;;;;;4993846;28;20664;-76
2022/03/19 12:10:12;;;;;;;16.40;11.77;;;13.90;46.70;;;;;;4988538;28;20198;-76
2022/03/19 12:12:45;;;;;;;13.50;11.10;;;13.90;44.20;;;;;;4974500;28;20729;-77
2022/03/19 12:15:46;;;;;;;15.83;11.33;;;14.00;44.30;;;;;;4989744;28;20731;-75
2022/03/19 12:18:26;;;;;;;14.60;11.57;;;13.90;45.20;;;;;;4952994;29;20207;-79
2022/03/19 12:20:55;;;;;;;13.40;11.30;;;14.10;43.30;;;;;;4981883;28;20248;-75
2022/03/19 12:23:27;;;;;;;17.87;11.40;;;14.50;43.20;;;;;;4987090;28;20210;-79
2022/03/19 12:26:01;;;;;;;15.43;10.90;;;14.80;42.50;;;;;;4981668;28;20219;-75
2022/03/19 12:28:30;;;;;;;15.60;11.30;;;15.10;43.80;;;;;;4980333;28;20215;-75
2022/03/19 12:31:04;;;;;;;12.70;11.10;;;15.10;42.20;;;;;;4999505;28;20257;-74
2022/03/19 12:33:37;;;;;;;13.93;11.27;;;14.90;44.00;;;;;;5001143;28;20289;-76
2022/03/19 12:36:13;;;;;;;13.67;11.10;;;15.20;43.50;;;;;;4988663;28;20234;-78
2022/03/19 12:38:43;;;;;;;17.13;12.03;;;15.50;43.20;;;;;;4999615;28;20204;-78
2022/03/19 12:41:31;;;;;;;13.63;12.10;;;14.70;40.80;;;;;;4993237;28;21249;-79
2022/03/19 12:44:24;;;;;;;14.40;11.67;;;13.20;41.80;;;;;;4990035;28;20227;-76
2022/03/19 12:46:58;;;;;;;14.40;12.53;;;13.10;43.30;;;;;;4975079;28;20200;-80
2022/03/19 12:49:27;;;;;;;14.97;11.53;;;13.20;43.20;;;;;;4976457;28;20770;-78
2022/03/19 12:51:56;;;;;;;14.57;11.77;;;13.30;42.60;;;;;;4985415;28;20265;-78
2022/03/19 12:54:29;;;;;;;14.33;11.33;;;13.40;44.10;;;;;;4990720;28;20202;-78
2022/03/19 12:56:59;;;;;;;15.43;11.80;;;13.30;43.00;;;;;;4985788;28;20258;-77
2022/03/19 12:59:30;;;;;;;13.40;11.50;;;13.10;42.20;;;;;;4992736;28;20204;-75
2022/03/19 13:01:58;;;;;;;13.43;11.47;;;13.20;43.40;;;;;;4973915;28;20274;-75
2022/03/19 13:04:29;;;;;;;15.43;11.37;;;12.40;42.10;;;;;;4990884;28;20237;-77
2022/03/19 13:06:58;;;;;;;16.13;12.77;;;12.00;42.60;;;;;;4992528;28;20226;-79
2022/03/19 13:09:32;;;;;;;18.73;13.00;;;11.80;43.90;;;;;;4993758;28;20210;-74
2022/03/19 13:12:03;;;;;;;15.70;12.50;;;11.50;43.30;;;;;;4996697;28;20198;-74
2022/03/19 13:14:35;;;;;;;14.67;12.20;;;11.50;44.40;;;;;;4997465;28;20238;-74